createdAt,value
2018-01-15T00:00:04.347Z,14.90
2018-01-15T00:02:32.715Z,14.60
2018-01-15T00:05:00.207Z,15.47
2018-01-15T00:07:27.686Z,14.80
2018-01-15T00:09:55.158Z,15.57
2018-01-15T00:12:22.650Z,14.57
2018-01-15T00:14:50.138Z,14.37
2018-01-15T00:17:17.718Z,14.13
2018-01-15T00:19:45.206Z,13.67
2018-01-15T00:22:14.301Z,15.40
2018-01-15T00:24:42.546Z,15.40
2018-01-15T00:27:10.138Z,13.50
2018-01-15T00:29:38.413Z,14.37
2018-01-15T00:32:06.705Z,14.50
2018-01-15T00:34:35.069Z,13.47
2018-01-15T00:37:03.341Z,13.83
2018-01-15T00:39:30.814Z,13.80
2018-01-15T00:41:59.062Z,15.07
2018-01-15T00:44:26.533Z,13.57
2018-01-15T00:46:54.995Z,13.50
2018-01-15T00:49:22.577Z,13.40
2018-01-15T00:51:51.355Z,12.93
2018-01-15T00:54:19.059Z,14.27
2018-01-15T00:56:46.723Z,14.10
2018-01-15T00:59:14.207Z,13.50
2018-01-15T01:01:41.686Z,12.47
2018-01-15T01:04:09.171Z,13.53
2018-01-15T01:06:37.414Z,13.10
2018-01-15T01:09:04.910Z,13.13
2018-01-15T01:11:33.184Z,13.03
2018-01-15T01:14:01.425Z,13.63
2018-01-15T01:16:28.907Z,14.17
2018-01-15T01:18:56.476Z,13.63
2018-01-15T01:21:24.716Z,11.87
2018-01-15T01:23:52.191Z,13.20
2018-01-15T01:26:19.678Z,13.77
2018-01-15T01:28:47.918Z,12.50
2018-01-15T01:31:15.394Z,13.60
2018-01-15T01:33:43.673Z,12.30
2018-01-15T01:36:11.914Z,14.10
2018-01-15T01:38:39.406Z,14.57
2018-01-15T01:41:07.664Z,13.57
2018-01-15T01:43:36.651Z,13.50
2018-01-15T01:46:04.129Z,14.00
2018-01-15T01:48:32.396Z,13.90
2018-01-15T01:51:01.384Z,13.77
2018-01-15T01:53:28.871Z,14.07
2018-01-15T01:55:57.127Z,14.97
2018-01-15T01:58:24.621Z,15.10
2018-01-15T02:00:52.111Z,14.80
2018-01-15T02:03:19.600Z,14.13
2018-01-15T02:05:47.844Z,14.73
2018-01-15T02:08:15.344Z,14.53
2018-01-15T02:10:42.909Z,13.90
2018-01-15T02:13:10.471Z,15.60
2018-01-15T02:15:38.767Z,16.63
2018-01-15T02:18:07.178Z,15.03
2018-01-15T02:20:34.686Z,15.63
2018-01-15T02:23:02.962Z,17.47
2018-01-15T02:25:31.214Z,16.40
2018-01-15T02:27:58.698Z,16.77
2018-01-15T02:30:26.942Z,16.27
2018-01-15T02:32:54.434Z,16.40
2018-01-15T02:35:22.678Z,18.20
2018-01-15T02:37:50.161Z,19.83
2018-01-15T02:40:17.650Z,20.20
2018-01-15T02:42:45.130Z,20.67
2018-01-15T02:45:12.606Z,20.40
2018-01-15T02:47:40.113Z,20.93
2018-01-15T02:50:08.357Z,19.67
2018-01-15T02:52:36.225Z,20.23
2018-01-15T02:55:03.723Z,20.17
2018-01-15T02:57:31.201Z,20.70
2018-01-15T02:59:58.716Z,21.57
2018-01-15T03:02:26.977Z,19.20
2018-01-15T03:04:55.168Z,17.63
2018-01-15T03:07:23.421Z,20.00
2018-01-15T03:09:50.915Z,21.90
2018-01-15T03:12:19.160Z,19.13
2018-01-15T03:14:48.150Z,17.83
2018-01-15T03:17:15.639Z,20.90
2018-01-15T03:19:43.898Z,18.63
2018-01-15T03:22:11.374Z,18.63
2018-01-15T03:24:39.626Z,18.00
2018-01-15T03:27:07.106Z,18.93
2018-01-15T03:29:35.355Z,18.10
2018-01-15T03:32:03.640Z,18.67
2018-01-15T03:34:31.116Z,17.53
2018-01-15T03:36:59.390Z,18.10
2018-01-15T03:39:27.666Z,18.30
2018-01-15T03:41:55.936Z,18.33
2018-01-15T03:44:23.505Z,19.07
2018-01-15T03:46:51.761Z,20.10
2018-01-15T03:49:19.343Z,22.33
2018-01-15T03:51:47.631Z,20.27
2018-01-15T03:54:15.129Z,19.17
2018-01-15T03:56:42.611Z,20.17
2018-01-15T03:59:10.105Z,20.67
2018-01-15T04:01:37.601Z,21.17
2018-01-15T04:04:05.081Z,19.40
2018-01-15T04:06:32.591Z,19.33
2018-01-15T04:09:00.129Z,20.03
2018-01-15T04:11:28.382Z,19.13
2018-01-15T04:13:55.862Z,20.27
2018-01-15T04:16:24.138Z,20.20
2018-01-15T04:18:52.430Z,19.83
2018-01-15T04:21:20.670Z,19.77
2018-01-15T04:23:48.159Z,20.17
2018-01-15T04:26:16.402Z,18.47
2018-01-15T04:28:43.878Z,19.30
2018-01-15T04:31:12.134Z,18.30
2018-01-15T04:33:40.389Z,18.40
2018-01-15T04:36:07.861Z,18.93
2018-01-15T04:38:35.451Z,18.17
2018-01-15T04:41:03.701Z,19.90
2018-01-15T04:43:31.181Z,20.17
2018-01-15T04:45:59.439Z,18.57
2018-01-15T04:48:26.923Z,19.27
2018-01-15T04:50:55.168Z,19.77
2018-01-15T04:53:22.754Z,19.73
2018-01-15T04:55:51.025Z,20.67
2018-01-15T04:58:19.418Z,21.40
2018-01-15T05:00:47.679Z,21.20
2018-01-15T05:03:15.254Z,20.97
2018-01-15T05:05:43.502Z,20.30
2018-01-15T05:08:11.118Z,20.33
2018-01-15T05:10:38.594Z,22.13
2018-01-15T05:13:06.106Z,20.00
2018-01-15T05:15:34.360Z,20.67
2018-01-15T05:18:01.950Z,23.43
2018-01-15T05:20:30.194Z,24.40
2018-01-15T05:22:57.682Z,24.20
2018-01-15T05:25:25.926Z,25.67
2018-01-15T05:27:54.178Z,25.63
2018-01-15T05:30:21.670Z,27.43
2018-01-15T05:32:49.149Z,25.90
2018-01-15T05:35:17.393Z,24.33
2018-01-15T05:37:44.889Z,25.90
2018-01-15T05:40:13.133Z,23.70
2018-01-15T05:42:41.463Z,24.00
2018-01-15T05:45:09.720Z,22.73
2018-01-15T05:47:37.969Z,23.00
2018-01-15T05:50:06.263Z,21.90
2018-01-15T05:52:34.533Z,20.63
2018-01-15T05:55:02.819Z,21.20
2018-01-15T05:57:31.089Z,21.90
2018-01-15T05:59:59.355Z,23.73
2018-01-15T06:02:26.827Z,20.20
2018-01-15T06:04:55.074Z,21.50
2018-01-15T06:07:22.566Z,19.17
2018-01-15T06:09:50.809Z,19.23
2018-01-15T06:12:18.291Z,21.23
2018-01-15T06:14:46.559Z,23.13
2018-01-15T06:17:14.039Z,21.90
2018-01-15T06:19:42.350Z,23.10
2018-01-15T06:22:10.570Z,19.20
2018-01-15T06:24:38.055Z,18.93
2018-01-15T06:27:05.598Z,19.70
2018-01-15T06:29:34.142Z,19.73
2018-01-15T06:32:01.614Z,20.03
2018-01-15T06:34:30.878Z,19.03
2018-01-15T06:36:58.397Z,18.53
2018-01-15T06:39:26.646Z,18.50
2018-01-15T06:41:54.121Z,16.70
2018-01-15T06:44:21.610Z,18.40
2018-01-15T06:46:49.150Z,19.23
2018-01-15T06:49:17.426Z,18.90
2018-01-15T06:51:45.682Z,17.53
2018-01-15T06:54:13.165Z,19.73
2018-01-15T06:56:40.662Z,17.53
2018-01-15T06:59:08.157Z,18.33
2018-01-15T07:01:36.406Z,19.00
2018-01-15T07:04:03.889Z,21.57
2018-01-15T07:06:31.385Z,20.23
2018-01-15T07:08:59.630Z,21.07
2018-01-15T07:11:28.617Z,18.30
2018-01-15T07:13:56.116Z,17.73
2018-01-15T07:16:23.589Z,18.13
2018-01-15T07:18:51.069Z,20.10
2018-01-15T07:21:18.558Z,18.30
2018-01-15T07:23:46.133Z,19.60
2018-01-15T07:26:14.373Z,21.43
2018-01-15T07:28:41.933Z,21.20
2018-01-15T07:31:09.415Z,19.70
2018-01-15T07:33:36.989Z,19.60
2018-01-15T07:36:05.239Z,17.97
2018-01-15T07:38:32.726Z,20.10
2018-01-15T07:41:00.966Z,18.33
2018-01-15T07:43:28.467Z,20.33
2018-01-15T07:45:56.704Z,20.40
2018-01-15T07:48:24.290Z,19.30
2018-01-15T07:50:52.574Z,19.73
2018-01-15T07:53:20.818Z,16.83
2018-01-15T07:55:48.290Z,17.50
2018-01-15T07:58:15.788Z,18.83
2018-01-15T08:00:43.314Z,16.70
2018-01-15T08:03:11.596Z,17.37
2018-01-15T08:05:39.854Z,16.43
2018-01-15T08:08:07.434Z,16.97
2018-01-15T08:10:35.714Z,16.60
2018-01-15T08:13:03.971Z,17.80
2018-01-15T08:15:31.472Z,17.73
2018-01-15T08:17:59.005Z,15.80
2018-01-15T08:20:27.281Z,15.97
2018-01-15T08:22:55.540Z,16.20
2018-01-15T08:25:23.783Z,15.57
2018-01-15T08:27:51.277Z,16.07
2018-01-15T08:30:20.307Z,16.83
2018-01-15T08:32:47.805Z,14.87
2018-01-15T08:35:15.293Z,16.20
2018-01-15T08:37:43.579Z,17.20
2018-01-15T08:40:11.852Z,17.93
2018-01-15T08:42:39.347Z,17.40
2018-01-15T08:45:06.827Z,18.03
2018-01-15T08:47:34.300Z,18.00
2018-01-15T08:50:01.790Z,17.90
2018-01-15T08:52:30.030Z,17.93
2018-01-15T08:54:57.512Z,18.20
2018-01-15T08:57:25.086Z,18.63
2018-01-15T08:59:53.330Z,19.27
2018-01-15T09:02:20.806Z,19.33
2018-01-15T09:04:48.299Z,18.80
2018-01-15T09:07:15.773Z,18.70
2018-01-15T09:09:43.250Z,18.27
2018-01-15T09:12:10.742Z,18.60
2018-01-15T09:14:38.276Z,18.50
2018-01-15T09:17:05.802Z,16.37
2018-01-15T09:19:33.287Z,17.27
2018-01-15T09:22:00.772Z,17.60
2018-01-15T09:24:28.251Z,17.60
2018-01-15T09:26:56.503Z,18.43
2018-01-15T09:29:25.497Z,18.97
2018-01-15T09:31:54.475Z,18.60
2018-01-15T09:34:21.966Z,16.40
2018-01-15T09:36:50.207Z,16.43
2018-01-15T09:39:17.683Z,17.13
2018-01-15T09:41:45.259Z,18.80
2018-01-15T09:44:13.511Z,19.50
2018-01-15T09:46:41.774Z,18.13
2018-01-15T09:49:09.274Z,18.27
2018-01-15T09:51:37.542Z,19.47
2018-01-15T09:54:05.786Z,17.90
2018-01-15T09:56:33.274Z,19.80
2018-01-15T09:59:00.838Z,18.10
2018-01-15T10:01:29.082Z,18.33
2018-01-15T10:03:56.638Z,17.97
2018-01-15T10:06:24.139Z,18.87
2018-01-15T10:08:52.383Z,18.03
2018-01-15T10:11:19.873Z,18.03
2018-01-15T10:13:48.143Z,18.20
2018-01-15T10:16:16.421Z,19.20
2018-01-15T10:18:45.241Z,19.47
2018-01-15T10:21:13.015Z,21.47
2018-01-15T10:23:40.563Z,18.57
2018-01-15T10:26:08.101Z,19.90
2018-01-15T10:28:36.396Z,21.20
2018-01-15T10:31:03.950Z,18.97
2018-01-15T10:33:31.438Z,18.83
2018-01-15T10:35:58.906Z,19.63
2018-01-15T10:38:27.426Z,18.40
2018-01-15T10:40:55.698Z,18.33
2018-01-15T10:43:23.265Z,18.23
2018-01-15T10:45:51.506Z,23.43
2018-01-15T10:48:19.006Z,20.27
2018-01-15T10:50:47.246Z,17.50
2018-01-15T10:53:14.722Z,16.30
2018-01-15T10:55:42.293Z,18.70
2018-01-15T10:58:10.549Z,19.23
2018-01-15T11:00:43.732Z,17.50
2018-01-15T11:03:11.219Z,17.33
2018-01-15T11:05:39.465Z,17.70
2018-01-15T11:08:07.053Z,18.50
2018-01-15T11:10:34.617Z,19.93
2018-01-15T11:13:02.857Z,19.80
2018-01-15T11:15:30.347Z,19.10
2018-01-15T11:17:57.823Z,20.90
2018-01-15T11:20:26.085Z,18.40
2018-01-15T11:22:54.341Z,19.97
2018-01-15T11:25:21.818Z,19.00
2018-01-15T11:27:50.074Z,19.43
2018-01-15T11:30:19.066Z,17.97
2018-01-15T11:32:46.648Z,17.50
2018-01-15T11:35:14.922Z,16.97
2018-01-15T11:37:42.406Z,18.10
2018-01-15T11:40:09.881Z,19.30
2018-01-15T11:42:37.362Z,18.40
2018-01-15T11:45:04.853Z,17.23
2018-01-15T11:47:32.333Z,22.77
2018-01-15T11:49:59.821Z,19.57
2018-01-15T11:52:27.310Z,17.67
2018-01-15T11:54:54.793Z,19.43
2018-01-15T11:57:23.039Z,21.73
2018-01-15T11:59:50.529Z,19.37
2018-01-15T12:02:18.769Z,18.43
2018-01-15T12:04:46.263Z,18.13
2018-01-15T12:07:14.537Z,18.10
2018-01-15T12:09:42.793Z,17.93
2018-01-15T12:12:11.099Z,17.17
2018-01-15T12:14:39.347Z,17.77
2018-01-15T12:17:06.831Z,17.50
2018-01-15T12:19:35.129Z,18.47
2018-01-15T12:22:04.126Z,16.73
2018-01-15T12:24:32.379Z,18.63
2018-01-15T12:27:00.627Z,17.77
2018-01-15T12:29:28.122Z,17.60
2018-01-15T12:31:56.358Z,18.40
2018-01-15T12:34:23.846Z,16.93
2018-01-15T12:36:52.098Z,19.63
2018-01-15T12:39:20.555Z,18.77
2018-01-15T12:41:48.034Z,18.10
2018-01-15T12:44:15.534Z,19.47
2018-01-15T12:46:43.009Z,17.37
2018-01-15T12:49:10.577Z,21.00
2018-01-15T12:51:38.066Z,18.20
2018-01-15T12:54:05.549Z,19.00
2018-01-15T12:56:33.785Z,17.60
2018-01-15T12:59:01.296Z,18.33
2018-01-15T13:01:29.569Z,17.60
2018-01-15T13:03:57.826Z,18.43
2018-01-15T13:06:37.249Z,19.90
2018-01-15T13:09:04.729Z,17.30
2018-01-15T13:11:33.894Z,18.60
2018-01-15T13:14:01.395Z,18.50
2018-01-15T13:16:29.669Z,18.17
2018-01-15T13:18:57.909Z,17.23
2018-01-15T13:21:25.425Z,18.97
2018-01-15T13:23:52.939Z,18.37
2018-01-15T13:26:21.410Z,17.97
2018-01-15T13:28:48.893Z,16.93
2018-01-15T13:31:17.171Z,16.30
2018-01-15T13:33:45.447Z,15.53
2018-01-15T13:36:12.932Z,15.83
2018-01-15T13:38:40.401Z,14.23
2018-01-15T13:41:07.930Z,14.10
2018-01-15T13:43:36.211Z,14.00
2018-01-15T13:46:04.461Z,16.07
2018-01-15T13:48:31.934Z,16.00
2018-01-15T13:51:00.186Z,16.37
2018-01-15T13:53:27.670Z,17.60
2018-01-15T13:55:55.149Z,16.80
2018-01-15T13:58:22.638Z,16.23
2018-01-15T14:00:50.154Z,16.50
2018-01-15T14:03:17.666Z,16.20
2018-01-15T14:05:45.149Z,16.57
2018-01-15T14:08:12.640Z,16.90
2018-01-15T14:10:40.124Z,15.13
2018-01-15T14:13:07.616Z,14.27
2018-01-15T14:15:35.177Z,14.80
2018-01-15T14:18:02.766Z,16.50
2018-01-15T14:20:31.085Z,17.40
2018-01-15T14:22:58.543Z,16.83
2018-01-15T14:25:26.023Z,16.60
2018-01-15T14:27:53.509Z,15.60
2018-01-15T14:30:21.775Z,15.77
2018-01-15T14:32:49.251Z,15.30
2018-01-15T14:35:17.505Z,16.00
2018-01-15T14:37:44.989Z,15.53
2018-01-15T14:40:13.281Z,15.27
2018-01-15T14:42:40.791Z,14.93
2018-01-15T14:45:08.268Z,13.80
2018-01-15T14:47:37.441Z,16.10
2018-01-15T14:50:04.964Z,15.30
2018-01-15T14:52:32.484Z,16.40
2018-01-15T14:55:00.772Z,16.70
2018-01-15T14:57:29.022Z,17.50
2018-01-15T14:59:56.506Z,15.90
2018-01-15T15:02:24.873Z,17.47
2018-01-15T15:04:53.134Z,16.43
2018-01-15T15:07:21.166Z,20.70
2018-01-15T15:09:49.422Z,17.00
2018-01-15T15:12:16.995Z,17.97
2018-01-15T15:14:44.518Z,17.80
2018-01-15T15:17:12.762Z,20.07
2018-01-15T15:19:40.259Z,18.03
2018-01-15T15:22:08.511Z,18.73
2018-01-15T15:24:35.998Z,17.60
2018-01-15T15:27:04.283Z,19.00
2018-01-15T15:29:31.831Z,16.47
2018-01-15T15:32:00.129Z,19.07
2018-01-15T15:34:28.366Z,17.93
2018-01-15T15:36:56.626Z,19.40
2018-01-15T15:39:24.215Z,18.67
2018-01-15T15:41:52.474Z,19.37
2018-01-15T15:44:19.955Z,19.80
2018-01-15T15:46:48.266Z,19.87
2018-01-15T15:49:15.763Z,18.07
2018-01-15T15:51:43.247Z,19.10
2018-01-15T15:54:11.767Z,18.57
2018-01-15T15:56:39.302Z,18.73
2018-01-15T15:59:06.798Z,20.53
2018-01-15T16:01:34.306Z,21.13
2018-01-15T16:04:04.880Z,20.63
2018-01-15T16:06:33.374Z,20.80
2018-01-15T16:09:00.854Z,19.10
2018-01-15T16:11:28.381Z,20.30
2018-01-15T16:13:55.876Z,19.63
2018-01-15T16:16:23.351Z,19.00
2018-01-15T16:18:51.623Z,21.77
2018-01-15T16:21:19.873Z,21.87
2018-01-15T16:23:47.349Z,20.93
2018-01-15T16:26:15.211Z,20.23
2018-01-15T16:28:42.791Z,20.17
2018-01-15T16:31:11.037Z,20.37
2018-01-15T16:33:38.541Z,22.10
2018-01-15T16:36:06.021Z,22.87
2018-01-15T16:38:33.505Z,20.53
2018-01-15T16:41:01.013Z,20.63
2018-01-15T16:43:29.283Z,19.20
2018-01-15T16:45:57.543Z,20.83
2018-01-15T16:48:25.718Z,19.10
2018-01-15T16:50:53.198Z,19.57
2018-01-15T16:53:21.447Z,19.23
2018-01-15T16:55:49.148Z,19.80
2018-01-15T16:58:16.689Z,20.03
2018-01-15T17:00:44.297Z,20.10
2018-01-15T17:03:11.790Z,20.17
2018-01-15T17:05:40.042Z,21.97
2018-01-15T17:08:07.636Z,20.97
2018-01-15T17:10:35.894Z,20.37
2018-01-15T17:13:03.477Z,21.17
2018-01-15T17:15:31.749Z,22.47
2018-01-15T17:18:00.141Z,22.17
2018-01-15T17:20:28.389Z,20.07
2018-01-15T17:22:57.429Z,21.07
2018-01-15T17:25:24.917Z,22.20
2018-01-15T17:27:52.397Z,19.10
2018-01-15T17:30:20.774Z,21.70
2018-01-15T17:32:49.005Z,20.23
2018-01-15T17:35:16.512Z,20.77
2018-01-15T17:37:44.763Z,18.70
2018-01-15T17:40:12.256Z,20.00
2018-01-15T17:42:39.763Z,20.73
2018-01-15T17:45:07.246Z,20.80
2018-01-15T17:47:34.748Z,20.73
2018-01-15T17:50:03.010Z,21.23
2018-01-15T17:52:31.270Z,19.70
2018-01-15T17:54:58.770Z,18.87
2018-01-15T17:57:26.259Z,20.07
2018-01-15T17:59:53.744Z,24.97
2018-01-15T18:02:21.236Z,19.63
2018-01-15T18:04:49.528Z,22.80
2018-01-15T18:07:16.998Z,21.70
2018-01-15T18:09:44.498Z,21.43
2018-01-15T18:12:13.490Z,21.13
2018-01-15T18:14:40.982Z,23.30
2018-01-15T18:17:09.248Z,20.73
2018-01-15T18:19:37.499Z,19.10
2018-01-15T18:22:05.809Z,23.07
2018-01-15T18:24:33.708Z,21.40
2018-01-15T18:27:01.181Z,20.43
2018-01-15T18:29:28.659Z,21.23
2018-01-15T18:31:56.172Z,19.30
2018-01-15T18:34:23.665Z,18.43
2018-01-15T18:36:51.151Z,16.90
2018-01-15T18:39:18.639Z,18.53
2018-01-15T18:41:46.159Z,18.03
2018-01-15T18:44:13.679Z,17.70
2018-01-15T18:46:41.210Z,17.10
2018-01-15T18:49:08.763Z,16.73
2018-01-15T18:51:37.303Z,16.10
2018-01-15T18:54:04.790Z,15.73
2018-01-15T18:56:32.280Z,17.10
2018-01-15T18:59:00.582Z,18.77
2018-01-15T19:01:28.106Z,19.20
2018-01-15T19:03:55.578Z,18.10
2018-01-15T19:06:23.052Z,16.67
2018-01-15T19:08:50.542Z,15.83
2018-01-15T19:11:19.533Z,18.50
2018-01-15T19:13:47.134Z,17.03
2018-01-15T19:16:15.392Z,16.47
2018-01-15T19:18:43.642Z,17.37
2018-01-15T19:21:11.124Z,17.27
2018-01-15T19:23:39.451Z,19.80
2018-01-15T19:26:06.934Z,17.47
2018-01-15T19:28:34.435Z,15.97
2018-01-15T19:31:02.817Z,14.60
2018-01-15T19:33:30.506Z,17.03
2018-01-15T19:38:59.563Z,16.37
2018-01-15T19:41:30.327Z,16.40
2018-01-15T19:47:05.703Z,14.93
2018-01-15T19:49:39.099Z,15.00
2018-01-15T19:52:12.347Z,19.30
2018-01-15T19:54:45.559Z,19.60
2018-01-15T19:57:19.576Z,14.90
2018-01-15T19:59:53.510Z,15.50
2018-01-15T20:02:26.656Z,14.77
2018-01-15T20:04:59.919Z,15.70
2018-01-15T20:07:33.394Z,14.50
2018-01-15T20:10:06.484Z,14.03
2018-01-15T20:12:33.992Z,14.50
2018-01-15T20:15:01.478Z,16.20
2018-01-15T20:17:29.720Z,19.37
2018-01-15T20:19:57.945Z,15.40
2018-01-15T20:22:25.483Z,14.10
2018-01-15T20:24:53.807Z,15.07
2018-01-15T20:27:21.528Z,16.13
2018-01-15T20:29:49.781Z,16.57
2018-01-15T20:32:18.411Z,15.43
2018-01-15T20:34:46.987Z,15.47
2018-01-15T20:37:14.485Z,15.77
2018-01-15T20:39:42.633Z,18.40
2018-01-15T20:42:10.153Z,24.43
2018-01-15T20:44:38.401Z,16.37
2018-01-15T20:47:05.891Z,15.77
2018-01-15T20:49:34.301Z,16.10
2018-01-15T20:52:01.833Z,17.40
2018-01-15T20:54:30.087Z,17.57
2018-01-15T20:56:57.579Z,16.20
2018-01-15T20:59:25.891Z,15.43
2018-01-15T21:01:53.507Z,15.50
2018-01-15T21:04:21.778Z,16.20
2018-01-15T21:06:49.262Z,16.93
2018-01-15T21:09:16.798Z,16.60
2018-01-15T21:11:45.063Z,15.53
2018-01-15T21:14:13.326Z,15.57
2018-01-15T21:16:40.809Z,16.50
2018-01-15T21:19:09.126Z,17.17
2018-01-15T21:21:36.650Z,17.43
2018-01-15T21:24:04.898Z,17.03
2018-01-15T21:26:32.386Z,16.73
2018-01-15T21:29:00.711Z,17.67
2018-01-15T21:31:28.272Z,16.30
2018-01-15T21:33:55.761Z,17.67
2018-01-15T21:36:23.250Z,17.70
2018-01-15T21:38:51.513Z,24.50
2018-01-15T21:41:19.777Z,17.93
2018-01-15T21:43:48.055Z,24.53
2018-01-15T21:46:18.777Z,18.10
2018-01-15T21:48:46.284Z,18.40
2018-01-15T21:51:13.815Z,17.40
2018-01-15T21:53:42.469Z,18.50
2018-01-15T21:56:09.984Z,16.80
2018-01-15T21:58:37.469Z,17.43
2018-01-15T22:01:04.959Z,18.20
2018-01-15T22:03:32.532Z,17.23
2018-01-15T22:06:00.806Z,16.40
2018-01-15T22:08:28.784Z,17.17
2018-01-15T22:10:57.050Z,16.60
2018-01-15T22:13:25.330Z,17.17
2018-01-15T22:15:53.578Z,16.07
2018-01-15T22:18:21.172Z,16.40
2018-01-15T22:20:49.442Z,18.60
2018-01-15T22:23:16.930Z,17.57
2018-01-15T22:25:44.718Z,19.80
2018-01-15T22:28:12.194Z,17.87
2018-01-15T22:30:39.699Z,18.13
2018-01-15T22:33:08.065Z,18.03
2018-01-15T22:35:36.315Z,20.60
2018-01-15T22:38:03.901Z,20.07
2018-01-15T22:40:32.161Z,21.27
2018-01-15T22:42:59.637Z,18.80
2018-01-15T22:45:27.881Z,18.70
2018-01-15T22:47:55.377Z,20.00
2018-01-15T22:50:23.662Z,18.63
2018-01-15T22:52:51.121Z,17.43
2018-01-15T22:55:19.383Z,17.43
2018-01-15T22:57:47.658Z,17.20
2018-01-15T23:00:15.935Z,17.77
2018-01-15T23:02:44.213Z,17.03
2018-01-15T23:05:12.454Z,15.73
2018-01-15T23:07:39.939Z,15.93
2018-01-15T23:10:07.422Z,18.23
2018-01-15T23:12:35.658Z,15.83
2018-01-15T23:15:03.140Z,17.07
2018-01-15T23:17:31.390Z,17.10
2018-01-15T23:19:58.878Z,18.40
2018-01-15T23:22:27.118Z,17.50
2018-01-15T23:24:54.606Z,17.27
2018-01-15T23:27:22.846Z,17.10
2018-01-15T23:29:50.317Z,16.27
2018-01-15T23:32:17.893Z,15.80
2018-01-15T23:34:45.369Z,16.23
2018-01-15T23:37:13.630Z,17.70
2018-01-15T23:39:41.119Z,18.17
2018-01-15T23:42:08.589Z,16.87
2018-01-15T23:44:36.085Z,17.73
2018-01-15T23:47:03.570Z,16.70
2018-01-15T23:49:31.809Z,17.83
2018-01-15T23:51:59.283Z,17.20
2018-01-15T23:54:33.229Z,16.03
2018-01-15T23:57:01.466Z,18.07
2018-01-15T23:59:28.947Z,16.40
